Time;durP1;ratioP1;P1;durP2;ratioP2;P2;SDS_P1;SDS_P2;PMS_P1;PMS_P2;Temp;Humidity;BMP_temperature;BMP_pressure;BME280_temperature;BME280_humidity;BME280_pressure;Samples;Min_cycle;Max_cycle;Signal;HPM_P1;HPM_P2
2022/08/19 00:00:00;;;;;;;13.10;11.70;;;;;;;18.89;100.00;97935.47;15279004;19;20041;-77
2022/08/19 00:05:12;;;;;;;13.93;12.48;;;;;;;18.85;100.00;97938.91;15283143;19;20006;-76
2022/08/19 00:10:20;;;;;;;15.27;12.80;;;;;;;18.84;100.00;97948.13;15274990;19;20014;-77
2022/08/19 00:15:26;;;;;;;18.17;13.05;;;;;;;18.74;100.00;97945.91;15288917;19;20011;-74
2022/08/19 00:20:33;;;;;;;16.55;14.85;;;;;;;18.73;100.00;97946.97;15279596;19;20019;-74
2022/08/19 00:25:38;;;;;;;19.63;14.48;;;;;;;18.74;100.00;97935.84;15288958;19;20018;-75
2022/08/19 00:30:43;;;;;;;13.93;12.45;;;;;;;18.76;100.00;97947.34;15289169;19;20766;-75
2022/08/19 00:35:51;;;;;;;15.63;13.57;;;;;;;18.78;100.00;97941.69;15294851;19;20014;-75
2022/08/19 00:40:59;;;;;;;14.80;13.32;;;;;;;18.75;100.00;97937.53;15340336;19;20017;-76
2022/08/19 00:46:04;;;;;;;13.68;12.30;;;;;;;18.76;100.00;97936.44;15291610;19;20023;-75
2022/08/19 00:51:12;;;;;;;15.35;13.30;;;;;;;18.78;100.00;97937.06;15274057;19;20062;-75
2022/08/19 00:56:17;;;;;;;14.10;12.65;;;;;;;18.76;100.00;97920.06;15282204;19;20437;-75
2022/08/19 01:01:21;;;;;;;14.80;12.43;;;;;;;18.70;100.00;97901.88;15277460;19;20595;-75
2022/08/19 01:06:30;;;;;;;11.68;10.50;;;;;;;18.67;100.00;97896.88;15279319;19;20111;-76
2022/08/19 01:11:41;;;;;;;12.82;11.52;;;;;;;18.63;100.00;97880.13;15279058;19;20007;-76
2022/08/19 01:16:47;;;;;;;12.90;11.33;;;;;;;18.61;100.00;97873.25;15270764;19;20015;-76
2022/08/19 01:22:00;;;;;;;11.65;10.45;;;;;;;18.59;100.00;97864.44;15273425;19;20011;-75
2022/08/19 01:27:21;;;;;;;15.63;13.98;;;;;;;18.55;100.00;97860.50;15273600;19;20016;-75
2022/08/19 01:32:26;;;;;;;19.63;16.67;;;;;;;18.46;100.00;97859.97;15270738;19;20032;-75
2022/08/19 01:37:45;;;;;;;17.50;15.43;;;;;;;18.44;100.00;97860.19;15275667;19;20038;-73
2022/08/19 01:42:53;;;;;;;21.33;18.70;;;;;;;18.42;100.00;97847.84;15272755;19;20030;-75
2022/08/19 01:48:00;;;;;;;22.08;17.80;;;;;;;18.39;100.00;97845.56;15268597;19;20087;-75
2022/08/19 01:53:09;;;;;;;17.33;15.50;;;;;;;18.40;100.00;97839.91;15273244;19;20014;-76
2022/08/19 01:58:23;;;;;;;15.95;14.13;;;;;;;18.45;100.00;97847.41;15273431;19;20014;-76
2022/08/19 02:03:28;;;;;;;16.52;14.73;;;;;;;18.45;100.00;97831.84;15270723;19;20018;-74
2022/08/19 02:08:35;;;;;;;15.32;12.68;;;;;;;18.48;100.00;97836.03;15275546;19;20054;-75
2022/08/19 02:13:43;;;;;;;14.20;12.80;;;;;;;18.47;100.00;97850.72;15272060;19;20034;-74
2022/08/19 02:18:48;;;;;;;16.55;14.85;;;;;;;18.43;100.00;97855.78;15267515;19;20018;-76
2022/08/19 02:23:53;;;;;;;17.73;15.77;;;;;;;18.43;100.00;97854.97;15270342;19;20045;-75
2022/08/19 02:29:01;;;;;;;19.88;16.05;;;;;;;18.42;100.00;97836.94;15271012;19;20042;-75
2022/08/19 02:34:05;;;;;;;20.02;16.77;;;;;;;18.41;100.00;97857.91;15267537;19;20014;-75
2022/08/19 02:39:10;;;;;;;20.27;16.75;;;;;;;18.42;100.00;97854.13;15274634;19;20039;-75
2022/08/19 02:44:21;;;;;;;18.48;16.42;;;;;;;18.45;100.00;97864.59;15269623;19;20030;-75
2022/08/19 02:49:34;;;;;;;17.70;15.77;;;;;;;18.46;100.00;97860.81;15268888;19;20015;-76
2022/08/19 02:54:39;;;;;;;16.65;14.75;;;;;;;18.42;100.00;97875.94;15270181;19;20031;-76
2022/08/19 02:59:46;;;;;;;16.27;14.25;;;;;;;18.39;100.00;97903.69;15268355;19;20028;-76
2022/08/19 03:04:51;;;;;;;16.70;13.57;;;;;;;18.42;100.00;97918.75;15291078;19;20011;-77
2022/08/19 03:09:57;;;;;;;14.20;12.52;;;;;;;18.44;100.00;97928.38;15307340;19;20011;-76
2022/08/19 03:15:05;;;;;;;13.50;12.20;;;;;;;18.46;100.00;97941.81;15339226;19;20027;-76
2022/08/19 03:20:13;;;;;;;14.38;12.80;;;;;;;18.48;100.00;97956.03;15304885;19;20010;-77
2022/08/19 03:25:17;;;;;;;14.98;13.30;;;;;;;18.50;100.00;97964.00;15295011;19;20081;-76
2022/08/19 03:30:25;;;;;;;15.40;13.73;;;;;;;18.46;100.00;97961.72;15302116;19;20042;-78
2022/08/19 03:35:30;;;;;;;15.95;14.25;;;;;;;18.50;100.00;97969.47;15291791;19;20797;-75
2022/08/19 03:40:39;;;;;;;15.18;13.57;;;;;;;18.52;100.00;97967.34;15288583;19;20018;-76
2022/08/19 03:45:47;;;;;;;14.93;13.43;;;;;;;18.52;100.00;97968.19;15288991;19;20049;-77
2022/08/19 03:50:51;;;;;;;15.48;13.77;;;;;;;18.55;100.00;97967.72;15285989;19;20018;-77
2022/08/19 03:55:57;;;;;;;15.32;13.70;;;;;;;18.54;100.00;97978.84;15283968;19;20015;-77
2022/08/19 04:01:04;;;;;;;15.90;13.65;;;;;;;18.54;100.00;97973.41;15286568;19;20037;-76
2022/08/19 04:06:14;;;;;;;16.98;13.38;;;;;;;18.55;100.00;97977.78;15288976;19;20057;-76
2022/08/19 04:11:22;;;;;;;15.02;13.50;;;;;;;18.58;100.00;97978.16;15286425;19;20019;-76
2022/08/19 04:16:50;;;;;;;15.82;13.98;;;;;;;18.56;100.00;97963.09;15286872;19;20056;-76
2022/08/19 04:21:57;;;;;;;18.33;15.25;;;;;;;18.58;100.00;97958.25;15279188;19;20014;-76
2022/08/19 04:27:02;;;;;;;18.80;16.05;;;;;;;18.56;100.00;97952.19;15282510;19;20014;-74
2022/08/19 04:32:09;;;;;;;18.42;16.42;;;;;;;18.56;100.00;97963.09;15281964;19;20034;-76
2022/08/19 04:37:14;;;;;;;20.05;17.38;;;;;;;18.56;100.00;97946.72;15275726;19;20038;-75
2022/08/19 04:47:40;;;;;;;17.55;15.75;;;;;;;18.60;100.00;97942.50;15285217;19;20015;-76
2022/08/19 04:52:55;;;;;;;17.25;15.35;;;;;;;18.62;100.00;97945.84;15283017;19;20107;-79
2022/08/19 04:58:01;;;;;;;18.35;16.35;;;;;;;18.61;100.00;97949.63;15282725;19;20022;-77
2022/08/19 05:03:08;;;;;;;18.90;16.90;;;;;;;18.59;100.00;97949.00;15280650;19;20010;-76
2022/08/19 05:08:23;;;;;;;19.67;16.50;;;;;;;18.62;100.00;97934.94;15291322;19;20029;-77
2022/08/19 05:13:42;;;;;;;19.33;17.33;;;;;;;18.61;100.00;97938.72;15330328;19;20018;-76
2022/08/19 05:24:09;;;;;;;17.50;15.48;;;;;;;18.69;100.00;97948.50;15276562;19;20042;-77
2022/08/19 05:29:16;;;;;;;20.60;17.92;;;;;;;18.70;100.00;97952.91;15279237;19;20030;-76
2022/08/19 05:34:25;;;;;;;19.60;17.58;;;;;;;18.71;100.00;97952.69;15251010;19;20010;-78
2022/08/19 05:39:32;;;;;;;18.38;16.45;;;;;;;18.74;100.00;97943.19;15283574;19;20035;-75
2022/08/19 05:44:43;;;;;;;21.58;17.27;;;;;;;18.77;100.00;97948.22;15272552;19;20031;-76
2022/08/19 05:49:52;;;;;;;;;;;;;;;18.82;100.00;97963.91;15292333;19;20062;-77
2022/08/19 05:54:57;;;;;;;18.67;16.77;;;;;;;18.80;100.00;97961.41;15280479;19;19918;-77
2022/08/19 06:00:04;;;;;;;18.45;16.17;;;;;;;18.77;100.00;97964.56;15279948;19;20042;-77
2022/08/19 06:05:17;;;;;;;19.42;17.20;;;;;;;18.79;100.00;97967.91;15277202;19;20018;-77
2022/08/19 06:10:22;;;;;;;19.60;17.50;;;;;;;18.79;100.00;97989.75;15283566;19;20015;-76
2022/08/19 06:15:27;;;;;;;20.83;17.33;;;;;;;18.82;100.00;98016.56;15278953;19;20022;-76
2022/08/19 06:20:35;;;;;;;19.75;16.98;;;;;;;18.85;100.00;98018.03;15283304;19;20050;-76
2022/08/19 06:25:59;;;;;;;19.65;16.70;;;;;;;18.89;100.00;98033.72;15287906;19;20428;-77
2022/08/19 06:31:08;;;;;;;19.50;17.13;;;;;;;18.92;100.00;98040.63;15285481;19;20019;-77
2022/08/19 06:36:26;;;;;;;18.50;16.05;;;;;;;18.94;100.00;98052.19;15303675;19;20007;-76
2022/08/19 06:41:32;;;;;;;16.77;14.52;;;;;;;18.90;100.00;98051.78;15186346;19;20015;-78
2022/08/19 06:46:38;;;;;;;17.02;15.27;;;;;;;18.96;100.00;98061.00;15305034;19;20132;-78
2022/08/19 06:51:49;;;;;;;16.65;14.73;;;;;;;18.98;100.00;98077.16;15309855;19;20018;-78
2022/08/19 06:56:56;;;;;;;18.02;14.63;;;;;;;18.98;100.00;98080.72;15311178;19;20122;-78
2022/08/19 07:02:02;;;;;;;19.50;14.82;;;;;;;18.96;100.00;98088.28;15304511;19;20034;-78
2022/08/19 07:07:12;;;;;;;21.95;15.57;;;;;;;18.98;100.00;98088.91;15308681;19;20023;-78
2022/08/19 07:12:25;;;;;;;18.42;14.98;;;;;;;18.97;100.00;98087.25;15315775;19;20035;-79
2022/08/19 07:17:30;;;;;;;16.77;14.35;;;;;;;18.96;100.00;98077.38;15304812;19;20369;-76
2022/08/19 07:22:41;;;;;;;15.90;14.20;;;;;;;18.99;100.00;98067.91;15300004;19;20022;-77
2022/08/19 07:27:47;;;;;;;16.70;14.63;;;;;;;18.98;100.00;98074.41;15308646;19;20035;-74
2022/08/19 07:32:58;;;;;;;16.45;14.73;;;;;;;18.99;100.00;98071.47;15310780;19;20034;-78
2022/08/19 07:38:10;;;;;;;15.88;14.27;;;;;;;19.05;100.00;98073.28;15306083;19;20566;-77
2022/08/19 07:43:14;;;;;;;16.35;12.82;;;;;;;19.07;100.00;98078.53;15301274;19;20075;-78
2022/08/19 07:48:25;;;;;;;13.68;12.27;;;;;;;19.09;100.00;98074.53;15308624;19;20011;-76
2022/08/19 07:53:33;;;;;;;14.52;12.93;;;;;;;19.13;100.00;98088.56;15307108;19;20019;-76
2022/08/19 07:58:46;;;;;;;14.18;12.52;;;;;;;19.19;100.00;98089.56;15310989;19;20019;-79
2022/08/19 08:09:17;;;;;;;14.53;11.90;;;;;;;19.18;100.00;98096.06;15297259;19;20026;-78
2022/08/19 08:14:27;;;;;;;16.00;13.50;;;;;;;19.20;100.00;98105.69;15288672;19;20030;-78
2022/08/19 08:19:40;;;;;;;16.10;14.40;;;;;;;19.17;100.00;98108.06;15292242;19;20414;-79
2022/08/19 08:24:48;;;;;;;16.15;14.45;;;;;;;19.20;100.00;98115.81;15294743;19;20038;-79
2022/08/19 08:29:53;;;;;;;15.80;14.18;;;;;;;19.19;100.00;98114.13;15298679;19;20054;-79
2022/08/19 08:34:58;;;;;;;17.98;16.08;;;;;;;19.19;100.00;98123.16;15293309;19;20051;-79
2022/08/19 08:40:09;;;;;;;18.83;15.93;;;;;;;19.20;100.00;98118.53;15293519;19;20487;-78
2022/08/19 08:45:20;;;;;;;14.40;12.90;;;;;;;19.20;100.00;98132.19;15295062;19;20045;-78
2022/08/19 08:50:32;;;;;;;12.23;10.40;;;;;;;19.15;100.00;98132.00;15298420;19;20018;-80
2022/08/19 08:55:40;;;;;;;9.23;8.13;;;;;;;18.97;100.00;98139.09;15295150;19;20471;-78
2022/08/19 09:00:48;;;;;;;9.40;8.40;;;;;;;18.90;100.00;98130.09;15302716;19;20014;-77
2022/08/19 09:06:01;;;;;;;6.45;5.50;;;;;;;18.80;100.00;98106.03;15340820;19;20023;-81
2022/08/19 09:11:17;;;;;;;6.57;5.43;;;;;;;18.71;100.00;98110.09;15338359;19;20082;-80
2022/08/19 09:16:42;;;;;;;6.18;5.50;;;;;;;18.69;100.00;98107.59;15290417;19;20677;-78
2022/08/19 09:21:47;;;;;;;6.25;5.65;;;;;;;18.66;100.00;98094.38;15287529;19;20015;-79
2022/08/19 09:26:55;;;;;;;7.95;6.40;;;;;;;18.67;100.00;98101.50;15287046;19;20047;-79
2022/08/19 09:32:01;;;;;;;7.75;6.88;;;;;;;18.68;100.00;98103.19;15282784;19;20014;-79
2022/08/19 09:37:06;;;;;;;10.35;8.05;;;;;;;18.69;100.00;98104.84;15286521;19;20002;-78
2022/08/19 09:42:14;;;;;;;9.55;8.15;;;;;;;18.74;100.00;98113.22;15284391;19;20549;-82
2022/08/19 09:47:37;;;;;;;11.30;8.48;;;;;;;18.78;100.00;98108.97;15276154;19;20015;-78
2022/08/19 09:52:44;;;;;;;11.63;9.43;;;;;;;18.82;100.00;98122.19;15279723;19;20022;-79
2022/08/19 09:58:04;;;;;;;12.65;8.82;;;;;;;18.78;100.00;98125.34;15286879;19;20010;-79
2022/08/19 10:03:11;;;;;;;10.10;8.20;;;;;;;18.71;100.00;98130.03;15279809;19;20018;-78
2022/08/19 10:08:16;;;;;;;10.35;8.07;;;;;;;18.64;100.00;98135.53;15282836;19;20039;-78
2022/08/19 10:13:26;;;;;;;5.68;5.00;;;;;;;18.55;100.00;98119.66;15278404;19;20007;-79
2022/08/19 10:18:33;;;;;;;3.97;3.58;;;;;;;18.46;100.00;98117.19;15280649;19;20007;-78
2022/08/19 10:23:39;;;;;;;5.38;3.20;;;;;;;18.48;100.00;98122.41;15274455;19;20352;-77
2022/08/19 10:28:47;;;;;;;3.72;3.10;;;;;;;18.41;100.00;98130.63;15284951;19;20006;-79
2022/08/19 10:33:57;;;;;;;3.47;3.00;;;;;;;18.38;100.00;98144.75;15280316;19;20046;-79
2022/08/19 10:39:12;;;;;;;3.38;2.60;;;;;;;18.26;100.00;98143.75;15288685;19;20018;-79
2022/08/19 10:44:21;;;;;;;2.95;2.50;;;;;;;18.29;100.00;98143.28;15285162;19;20047;-80
2022/08/19 10:49:25;;;;;;;2.42;2.22;;;;;;;18.31;100.00;98135.75;15287002;19;20011;-79
2022/08/19 10:59:51;;;;;;;3.35;2.67;;;;;;;18.41;100.00;98166.09;15281703;19;20039;-80
2022/08/19 11:04:55;;;;;;;2.63;2.42;;;;;;;18.34;100.00;98162.59;15275279;19;20018;-79
2022/08/19 11:10:07;;;;;;;2.90;2.60;;;;;;;18.40;100.00;98167.19;15278169;19;20034;-78
2022/08/19 11:15:19;;;;;;;3.15;2.65;;;;;;;18.37;100.00;98164.88;15278693;19;20113;-78
2022/08/19 11:20:25;;;;;;;3.38;3.00;;;;;;;18.40;100.00;98171.78;15276406;19;20014;-79
2022/08/19 11:25:30;;;;;;;3.95;3.10;;;;;;;18.32;100.00;98171.00;15284951;19;20040;-77
2022/08/19 11:30:39;;;;;;;2.70;2.50;;;;;;;18.26;100.00;98171.03;15286683;19;20024;-76
2022/08/19 11:35:44;;;;;;;2.70;2.13;;;;;;;18.48;100.00;98164.19;15292800;19;20006;-78
2022/08/19 11:40:57;;;;;;;1.98;1.73;;;;;;;18.67;100.00;98139.72;15286431;19;20014;-77
2022/08/19 11:46:06;;;;;;;2.20;1.60;;;;;;;18.79;100.00;98128.94;15289016;19;20015;-77
2022/08/19 11:51:13;;;;;;;3.50;2.00;;;;;;;19.01;100.00;98123.94;15286883;19;20010;-77
2022/08/19 11:56:18;;;;;;;2.63;2.17;;;;;;;19.30;100.00;98127.03;15287996;19;20042;-78
2022/08/19 12:01:27;;;;;;;6.40;2.33;;;;;;;19.52;100.00;98116.50;15292931;19;20010;-78
2022/08/19 12:06:34;;;;;;;3.28;2.47;;;;;;;19.61;100.00;98103.38;15287074;19;20034;-77
2022/08/19 12:11:40;;;;;;;3.65;2.63;;;;;;;19.62;100.00;98080.47;15284053;19;20011;-76
2022/08/19 12:16:48;;;;;;;3.47;2.35;;;;;;;19.73;100.00;98080.75;15288553;19;20014;-77
2022/08/19 12:22:02;;;;;;;2.72;2.40;;;;;;;19.70;100.00;98071.13;15288372;19;20375;-78
2022/08/19 12:27:07;;;;;;;3.05;2.15;;;;;;;19.82;100.00;98073.91;15290761;19;20746;-78
2022/08/19 12:32:18;;;;;;;3.25;2.40;;;;;;;19.98;100.00;98077.94;15284416;19;20482;-77
2022/08/19 12:37:23;;;;;;;2.75;2.00;;;;;;;20.17;100.00;98065.03;15294914;19;20023;-77
2022/08/19 12:42:28;;;;;;;2.90;2.40;;;;;;;20.29;100.00;98046.78;15288102;19;20007;-77
2022/08/19 12:47:35;;;;;;;3.55;2.72;;;;;;;20.28;100.00;98044.28;15297726;19;20033;-78
2022/08/19 12:52:51;;;;;;;3.17;2.88;;;;;;;20.28;100.00;98064.28;15299924;19;20023;-78
2022/08/19 12:57:56;;;;;;;2.60;2.40;;;;;;;20.59;100.00;98073.25;15341719;19;20068;-79
2022/08/19 13:03:03;;;;;;;3.63;2.90;;;;;;;20.75;100.00;98076.44;15317715;19;20034;-76
2022/08/19 13:08:08;;;;;;;2.97;2.47;;;;;;;20.88;100.00;98067.97;15288151;19;20028;-77
2022/08/19 13:13:13;;;;;;;3.92;2.20;;;;;;;20.97;100.00;98057.50;15280534;19;20015;-78
2022/08/19 13:18:20;;;;;;;3.28;2.30;;;;;;;20.95;100.00;98067.84;15288462;19;20335;-77
2022/08/19 13:23:26;;;;;;;5.43;2.08;;;;;;;20.99;100.00;98071.78;15279056;19;20020;-76
2022/08/19 13:33:10;;;;;;;3.22;2.55;;;;;;;20.86;100.00;98081.06;15283221;19;20137;-77
2022/08/19 13:33:58;;;;;;;2.70;2.50;;;;;;;20.76;100.00;98095.34;15276106;19;20298;-77
2022/08/19 13:39:03;;;;;;;3.95;2.42;;;;;;;20.72;100.00;98105.06;15296343;19;20466;-75
2022/08/19 13:44:08;;;;;;;2.53;2.30;;;;;;;20.69;100.00;98091.00;15275337;19;20468;-74
2022/08/19 13:49:23;;;;;;;3.22;2.42;;;;;;;20.56;100.00;98101.09;15275162;19;20362;-76
2022/08/19 13:54:27;;;;;;;3.75;2.38;;;;;;;20.62;100.00;98107.53;15274155;19;20015;-74
2022/08/19 13:59:32;;;;;;;3.40;2.50;;;;;;;20.52;100.00;98104.53;15280289;19;20026;-73
2022/08/19 14:04:40;;;;;;;2.50;2.30;;;;;;;20.37;100.00;98102.22;15272673;19;20499;-75
2022/08/19 14:09:45;;;;;;;2.58;2.08;;;;;;;20.38;100.00;98103.91;15277417;19;20018;-74
2022/08/19 14:14:52;;;;;;;1.80;1.70;;;;;;;20.39;100.00;98105.56;15280520;19;20025;-74
2022/08/19 14:20:04;;;;;;;1.60;1.50;;;;;;;20.37;100.00;98097.59;15275589;19;20018;-72
2022/08/19 14:25:17;;;;;;;2.17;1.33;;;;;;;20.37;100.00;98096.75;15278899;19;20029;-75
2022/08/19 14:30:29;;;;;;;;;;;;;;;20.33;100.00;98090.94;15284059;19;20015;-74
2022/08/19 14:35:36;;;;;;;1.20;1.10;;;;;;;20.50;100.00;98093.84;15284841;19;20119;-76
2022/08/19 14:40:45;;;;;;;1.30;1.20;;;;;;;20.49;100.00;98092.16;15279495;19;20034;-75
2022/08/19 14:45:50;;;;;;;1.55;1.30;;;;;;;20.43;100.00;98087.59;15281854;19;20506;-75
2022/08/19 14:50:59;;;;;;;2.65;1.30;;;;;;;20.53;100.00;98089.78;15314719;19;20467;-75
2022/08/19 14:56:04;;;;;;;2.47;1.27;;;;;;;20.57;100.00;98086.34;15327074;19;20022;-76
2022/08/19 15:01:09;;;;;;;1.35;1.13;;;;;;;20.58;100.00;98098.13;15297926;19;20022;-78
2022/08/19 15:06:17;;;;;;;1.60;1.10;;;;;;;20.62;100.00;98089.22;15287062;19;20055;-76
2022/08/19 15:11:27;;;;;;;2.25;1.17;;;;;;;20.67;100.00;98083.03;15285582;19;20023;-76
2022/08/19 15:16:32;;;;;;;0.90;0.90;;;;;;;20.70;100.00;98081.72;15290069;19;20022;-76
2022/08/19 15:21:39;;;;;;;0.93;0.80;;;;;;;20.66;100.00;98070.41;15286432;19;20019;-76
2022/08/19 15:26:47;;;;;;;2.88;0.75;;;;;;;20.45;100.00;98061.69;15291276;19;20063;-74
2022/08/19 15:31:54;;;;;;;1.10;0.80;;;;;;;20.34;100.00;98062.50;15287646;19;20017;-77
2022/08/19 15:37:04;;;;;;;0.98;0.80;;;;;;;20.16;100.00;98055.19;15291206;19;20034;-76
2022/08/19 15:42:09;;;;;;;1.02;0.80;;;;;;;20.04;100.00;98057.06;15281505;19;20486;-78
2022/08/19 15:47:21;;;;;;;1.15;0.70;;;;;;;20.04;100.00;98055.13;15293318;19;20078;-77
2022/08/19 15:52:28;;;;;;;0.80;0.70;;;;;;;20.08;100.00;98055.50;15286106;19;20022;-79
2022/08/19 16:08:10;;;;;;;0.57;0.57;;;;;;;20.06;100.00;98030.28;15287508;19;20849;-75
2022/08/19 16:13:15;;;;;;;3.30;0.55;;;;;;;20.04;100.00;98035.19;15283612;19;20395;-75
2022/08/19 16:18:19;;;;;;;1.77;0.52;;;;;;;20.01;100.00;98030.97;15282893;19;20657;-75
2022/08/19 16:23:27;;;;;;;0.65;0.65;;;;;;;19.95;100.00;98024.53;15284913;19;20476;-75
2022/08/19 16:28:32;;;;;;;1.08;0.68;;;;;;;19.95;100.00;98024.53;15286335;19;20019;-75
2022/08/19 16:33:37;;;;;;;0.75;0.60;;;;;;;19.90;100.00;98021.69;15279892;19;20042;-73
2022/08/19 16:38:45;;;;;;;0.73;0.60;;;;;;;19.88;100.00;98028.44;15290657;19;20018;-74
2022/08/19 16:43:53;;;;;;;0.88;0.80;;;;;;;19.80;100.00;98044.06;15284961;19;20039;-74
2022/08/19 16:48:58;;;;;;;1.10;0.80;;;;;;;19.78;100.00;98046.19;15288932;19;20010;-76
2022/08/19 16:59:51;;;;;;;0.85;0.80;;;;;;;19.70;100.00;98050.06;15338585;19;20034;-77
2022/08/19 17:04:58;;;;;;;1.35;0.90;;;;;;;19.66;100.00;98059.81;15300426;19;20014;-76
2022/08/19 17:10:04;;;;;;;0.80;0.80;;;;;;;19.66;100.00;98056.22;15279274;19;20468;-74
2022/08/19 17:15:10;;;;;;;1.20;0.85;;;;;;;19.64;100.00;98061.94;15281799;19;20047;-75
2022/08/19 17:20:18;;;;;;;0.77;0.70;;;;;;;19.60;100.00;98059.91;15268234;19;20025;-72
2022/08/19 17:25:22;;;;;;;1.65;0.70;;;;;;;19.54;100.00;98056.19;15272856;19;20626;-74
2022/08/19 17:30:30;;;;;;;1.38;0.80;;;;;;;19.55;100.00;98057.84;15279618;19;20014;-74
2022/08/19 17:35:42;;;;;;;0.85;0.80;;;;;;;19.54;100.00;98056.19;15270863;19;20026;-76
2022/08/19 17:40:48;;;;;;;0.80;0.70;;;;;;;19.55;100.00;98063.31;15280056;19;20015;-75
2022/08/19 17:45:54;;;;;;;1.73;0.82;;;;;;;19.54;100.00;98058.91;15273669;19;20007;-75
2022/08/19 17:51:02;;;;;;;1.33;0.80;;;;;;;19.52;100.00;98071.97;15271415;19;20042;-76
2022/08/19 17:56:07;;;;;;;1.00;0.80;;;;;;;19.50;100.00;98074.09;15270065;19;20011;-73
2022/08/19 18:01:14;;;;;;;2.92;0.90;;;;;;;19.43;100.00;98063.22;15269019;19;20472;-73
2022/08/19 18:06:23;;;;;;;1.98;0.80;;;;;;;19.39;100.00;98060.13;15264401;19;20023;-75
2022/08/19 18:11:27;;;;;;;0.70;0.70;;;;;;;19.35;100.00;98056.16;15280515;19;20745;-75
2022/08/19 18:16:32;;;;;;;1.42;0.80;;;;;;;19.31;100.00;98057.69;15277001;19;20034;-78
2022/08/19 18:21:41;;;;;;;0.75;0.75;;;;;;;19.27;100.00;98056.47;15278142;19;20018;-76
2022/08/19 18:26:45;;;;;;;1.45;0.70;;;;;;;19.24;100.00;98051.47;15276732;19;20014;-75
2022/08/19 18:31:50;;;;;;;2.42;0.80;;;;;;;19.12;100.00;98053.28;15253298;19;20034;-75
2022/08/19 18:36:57;;;;;;;1.55;0.70;;;;;;;19.09;100.00;98060.03;15274534;19;20051;-76
2022/08/19 18:52:39;;;;;;;2.25;0.85;;;;;;;19.02;100.00;98092.03;15266398;19;20018;-75
2022/08/19 18:57:44;;;;;;;1.73;0.80;;;;;;;19.01;100.00;98095.81;15262575;19;20011;-75
2022/08/19 19:02:49;;;;;;;0.90;0.75;;;;;;;19.00;100.00;98100.41;15272272;19;20038;-76
2022/08/19 19:07:56;;;;;;;0.80;0.80;;;;;;;18.98;100.00;98104.44;15271737;19;20745;-75
2022/08/19 19:13:00;;;;;;;1.17;0.90;;;;;;;18.94;100.00;98112.25;15272831;19;20034;-75
2022/08/19 19:18:05;;;;;;;1.92;1.08;;;;;;;18.92;100.00;98106.13;15277784;19;20079;-75
2022/08/19 19:23:12;;;;;;;1.95;1.10;;;;;;;18.90;100.00;98108.25;15271267;19;20010;-75
2022/08/19 19:28:24;;;;;;;3.10;1.02;;;;;;;18.85;100.00;98127.22;15272005;19;20768;-77
2022/08/19 19:33:29;;;;;;;1.10;1.00;;;;;;;18.83;100.00;98127.41;15271940;19;20629;-75
2022/08/19 19:38:37;;;;;;;2.65;1.13;;;;;;;18.83;100.00;98132.03;15273554;19;20021;-77
2022/08/19 19:43:43;;;;;;;1.02;0.95;;;;;;;18.81;100.00;98145.06;15273587;19;20010;-76
2022/08/19 19:48:48;;;;;;;1.90;1.15;;;;;;;18.76;100.00;98157.47;15294362;19;20047;-76
2022/08/19 19:53:56;;;;;;;1.75;1.10;;;;;;;18.74;100.00;98145.13;15285709;19;20010;-76
2022/08/19 19:59:02;;;;;;;1.90;1.20;;;;;;;18.66;100.00;98148.13;15285353;19;20503;-76
2022/08/19 20:04:06;;;;;;;1.60;1.50;;;;;;;18.53;100.00;98163.53;15285109;19;20479;-76
2022/08/19 20:09:16;;;;;;;1.88;1.10;;;;;;;18.51;100.00;98167.53;15290019;19;20018;-75
2022/08/19 20:14:25;;;;;;;2.25;1.40;;;;;;;18.46;100.00;98152.66;15280642;19;20014;-75
2022/08/19 20:19:36;;;;;;;2.17;1.27;;;;;;;18.47;100.00;98159.78;15293255;19;20575;-75
2022/08/19 20:24:44;;;;;;;4.60;1.38;;;;;;;18.42;100.00;98186.88;15321915;19;20011;-78
2022/08/19 20:29:48;;;;;;;3.60;1.48;;;;;;;18.42;100.00;98189.59;15350786;19;20044;-75
2022/08/19 20:34:56;;;;;;;1.27;1.10;;;;;;;18.40;100.00;98193.59;15285412;19;20050;-76
2022/08/19 20:40:08;;;;;;;4.30;1.45;;;;;;;18.36;100.00;98187.75;15295245;19;20268;-75
2022/08/19 20:45:17;;;;;;;2.20;1.40;;;;;;;18.31;100.00;98176.66;15288690;19;20373;-77
2022/08/19 20:50:38;;;;;;;1.48;1.30;;;;;;;18.28;100.00;98169.75;15339617;19;20002;-75
2022/08/19 20:55:48;;;;;;;3.03;1.40;;;;;;;18.27;100.00;98173.53;15315603;19;20027;-76
2022/08/19 21:00:56;;;;;;;1.88;1.30;;;;;;;18.23;100.00;98177.72;15282733;19;20348;-73
2022/08/19 21:06:00;;;;;;;2.78;1.48;;;;;;;18.23;100.00;98187.81;15270674;19;20011;-74
2022/08/19 21:11:08;;;;;;;2.30;1.60;;;;;;;18.22;100.00;98191.59;15279943;19;20595;-74
2022/08/19 21:16:13;;;;;;;2.47;1.70;;;;;;;18.18;100.00;98186.56;15277162;19;20022;-73
2022/08/19 21:21:18;;;;;;;2.30;1.70;;;;;;;18.13;100.00;98191.84;15274242;19;20010;-73
2022/08/19 21:26:26;;;;;;;2.00;1.80;;;;;;;18.14;100.00;98196.25;15273860;19;20019;-71
2022/08/19 21:31:31;;;;;;;2.63;1.70;;;;;;;18.13;100.00;98202.75;15277088;19;20022;-73
2022/08/19 21:36:35;;;;;;;2.83;1.95;;;;;;;18.13;100.00;98200.03;15271826;19;20038;-74
2022/08/19 21:41:43;;;;;;;2.72;1.80;;;;;;;18.11;100.00;98209.47;15274879;19;20038;-73
2022/08/19 21:46:48;;;;;;;4.43;1.90;;;;;;;18.10;100.00;98219.53;15273312;19;20433;-73
2022/08/19 21:51:57;;;;;;;2.33;2.05;;;;;;;18.04;100.00;98211.38;15269894;19;20010;-74
2022/08/19 21:57:04;;;;;;;3.10;2.20;;;;;;;18.06;100.00;98215.53;15277414;19;20043;-74
2022/08/19 22:02:16;;;;;;;4.03;2.28;;;;;;;18.05;100.00;98226.69;15274501;19;20737;-76
2022/08/19 22:07:25;;;;;;;2.78;2.30;;;;;;;18.03;100.00;98221.44;15272527;19;20010;-75
2022/08/19 22:12:36;;;;;;;3.53;2.47;;;;;;;18.00;100.00;98219.97;15268693;19;20013;-75
2022/08/19 22:17:41;;;;;;;2.95;2.50;;;;;;;17.97;100.00;98212.25;15278075;19;20034;-76
2022/08/19 22:22:48;;;;;;;5.10;2.20;;;;;;;17.92;100.00;98205.72;15269365;19;20384;-75
2022/08/19 22:27:56;;;;;;;2.55;2.30;;;;;;;17.90;100.00;98207.81;15273620;19;20535;-75
2022/08/19 22:33:09;;;;;;;2.88;2.50;;;;;;;17.89;100.00;98197.97;15275999;19;20031;-73
2022/08/19 22:38:15;;;;;;;3.65;2.70;;;;;;;17.87;100.00;98201.75;15275656;19;20044;-74
2022/08/19 22:43:24;;;;;;;2.78;2.40;;;;;;;17.89;100.00;98206.97;15265533;19;20014;-74
2022/08/19 22:48:32;;;;;;;3.63;2.45;;;;;;;17.90;100.00;98216.00;15270800;19;20502;-74
2022/08/19 22:53:40;;;;;;;4.40;2.88;;;;;;;17.85;100.00;98214.75;15267342;19;20034;-74
2022/08/19 22:58:49;;;;;;;3.50;2.88;;;;;;;17.79;100.00;98226.50;15269624;19;20018;-75
2022/08/19 23:03:55;;;;;;;4.00;3.35;;;;;;;17.69;100.00;98226.13;15269287;19;20051;-75
2022/08/19 23:09:00;;;;;;;4.15;3.33;;;;;;;17.61;100.00;98234.50;15276130;19;20043;-75
2022/08/19 23:14:11;;;;;;;3.40;3.10;;;;;;;17.63;100.00;98225.06;15265944;19;20053;-75
2022/08/19 23:19:16;;;;;;;3.13;2.80;;;;;;;17.64;100.00;98226.72;15284633;19;20015;-76
2022/08/19 23:24:21;;;;;;;5.80;3.20;;;;;;;17.67;100.00;98239.09;15280792;19;20034;-76
2022/08/19 23:34:46;;;;;;;3.58;2.97;;;;;;;17.72;100.00;98252.91;15281027;19;20018;-76
2022/08/19 23:39:51;;;;;;;3.92;2.75;;;;;;;17.75;100.00;98247.03;15288946;19;20047;-74
2022/08/19 23:45:01;;;;;;;4.07;3.20;;;;;;;17.76;100.00;98240.56;15278862;19;20038;-75
2022/08/19 23:50:12;;;;;;;3.65;3.10;;;;;;;17.78;100.00;98249.34;15288277;19;20014;-74
2022/08/19 23:55:18;;;;;;;3.00;2.70;;;;;;;17.80;100.00;98260.03;15290034;19;20014;-76
